Main page
METAR-TAF:

METAR-TAF

Airports :

Al-Ahsa International Airport

Al-Hasa, Saudi Arabia

latitude: 25-18N, longitude: 049-29E, elevation: 179 m

Current weather observation

The report was made 56 minutes ago, at 00:00 UTC
Wind 10 kt from the West
Temperature 30°C
Humidity 21%
Pressure 999 hPa
Visibility 10 km or more
no clouds below 1500 m and no cumulonimbus

METAR: OEAH 210000Z 27010KT CAVOK 30/05 Q0999 NOSIG

Time: 03:56 (00:56 UTC)

Forecast

The report was made 1 hour and 56 minutes ago, at 23:00 UTC
Forecast valid from 21 at 00 UTC to 22 at 06 UTC
Wind 10 kt from the West
Visibility: 7000 m
Clear sky
Becoming
from 21 at 06 UTC to 21 at 08 UTC
Wind 8 kt from the North with gusts up to 18 kt
Temporary
from 21 at 06 UTC to 21 at 15 UTC
Visibility: 3500 m
widespread dust, Blowing dust

TAF: OEAH 202300Z 2100/2206 27010KT 7000 SKC BECMG 2106/2108 36008G18KT TEMPO 2106/2115 3500 DU BLDU

Weather observations and forecasts of more than 4000 airports (METAR and TAF reports).

The available stations are represented by yellow and red dots on the map.

Hover mouse over dot to see the name of the station.

Then click to see weather observations and forecasts.

To change the map : click on the green buttons with a black cross to zoom in, on the green button with a dash to zoom out, or on the green arrows for adjacent maps.


METAR-TAF: